Aeroporto :
LOGIN :

Iscrizione | Disclaimer

   EN    FR    IT 

 










Sommario :    VFR   VFR Marginale   IFR   IFR Intensivo   IFR Molto Intensivo
Visibilità : 
Base nubi : 
>= 8 km
>= 3000ft
5 / 8 km
1000 / 3000 ft
1500m / 5 km
500 / 1000 ft
800 / 1500m
200 / 500 ft
< 800m
< 200 ft
Simboli :   Temporali  Nebbia  Neve Forte  Precipitazioni Forti  Vento > 20 kt
SIGMETs :   Varie  Temporali  Ghiacco  Turbolenza  Onda orograficha  Ceneri Vulcaniche






- Altitudine del aeroporto : 614 ft
- Codice IATA : CRL


EBCI - Charleroi

ULTIMO METAR :
  • 282150Z AUTO 05007KT CAVOK 14/03 Q1029

METARs OBSOLETI :
  • 282120Z AUTO 05007KT CAVOK 15/02 Q1029
  • 282050Z AUTO 04008KT CAVOK 15/02 Q1029
  • 282020Z AUTO 04008KT CAVOK 15/02 Q1029
  • 281950Z AUTO 05009KT CAVOK 16/02 Q1029
  • 281920Z AUTO 05009KT CAVOK 17/01 Q1029

TAF TAF EBCI
Valido dal 28 a 18 ore il 30 a 00 ore UTC


281710Z 2818/2924 04008KT CAVOK



MetMap, La meteo Aeronautica in un colpo d'occhio ! - Copyright ORBIFLY Dicembre 2007 - Disclaimer

ORBIFLY MET'MAP TEAM :

Programmazione e sviluppo : Alexandra Zaïnal
Concezione : Baudouin d'Aumeries
Aiuto per la programmazione : Marc-Olivier Méhu
Supporto tecnico e logistico : Manuel Goepfert
Aiuto per la traduzione : Arnaldo La Scala

Contatto : metmap@orbifly.com




FONTI E CREDITI :

   NOAA